Share

Kobuk Valley National Park, AK

Baker Memorial (PAIK) Hoogte 151 ft | 66.98 °N, 160.44 °W | Change Station

Current weather conditions updated 32 minutes ago

Clear
Helder
26 °F
Voelt als 22 °F
N
4
Wind Variabel Wind van NO
Zonsopkomst 6:30 AM
Zonsondergang 10:52 PM
Maan Afnemende maan

Er wordt verwacht dat de temperatuur vandaag bijna hetzelfde is als gisteren.

Druk 30.01 inches
Zicht 10.0 mijlen
Wolken Helder
Gevoelstemperatuur 22 °F
Dauwpunt 22 °F
Vochtigheid 84%
Neerslag 0.00 inches
Dikte sneeuw Niet beschikbaar.
UV 0 van de 16
Pollen Niet beschikbaar.
Luchtkwaliteit Niet beschikbaar.
Flu Activity Sporadic
METAR PAIK 201401Z AUTO 04003KT 10SM CLR M03/M06 A2988 RMK AO2 SLP162 T10331056 FZRANO

More Conditions Fewer Conditions

Druk 30.01 inches
Zicht 10.0 mijlen
Wolken Helder
Gevoelstemperatuur 22 °F
Dauwpunt 22 °F
Vochtigheid 84%
Neerslag 0.00 inches
Dikte sneeuw Niet beschikbaar.
UV 0 van de 16
Pollen Niet beschikbaar.
Luchtkwaliteit Niet beschikbaar.
Flu Activity Sporadic
METAR PAIK 201401Z AUTO 04003KT 10SM CLR M03/M06 A2988 RMK AO2 SLP162 T10331056 FZRANO

More Conditions Fewer Conditions

10-Day Weather Forecast

Almanac

Astronomie

Apr. 20, 2014 Opkomst Ondergang
Werkelijke tijd 6:30 AM AKDT 10:52 PM AKDT
Burgerlijke schemering 5:16 AM AKDT 12:08 AM AKDT
Nautische schemering 3:12 AM AKDT 2:07 AM AKDT
Astronomische schemering Sun does not rise Sun does not rise
Maan 4:50 AM AKDT 9:56 AM AKDT
Golflengte van het zichtbare licht 18h 51m
Daglengte
16h 22m
Tomorrow will be 8m 15s longer.
Afnemende maan, 69% of the Moon is Illuminated
Vandaag
Afnemende maan
apr 22
Laatste kwartier
apr 29
Nieuw
mei 6
Eerste kwartier
mei 14
Volle maan

Extremen vandaag

State Highs State Lows

Community

  • Easter Sunrise
    Easter Sunrise
  • Happy Easter
    Happy Easter
  • EARLY FOGGY MORNING
    EARLY FOGGY MORNING
  • Easter Greetings
    Easter Greetings
  • Sunny day at the coast-Cape Arago Lighthouse
    Sunny day at the coast-Cape Arago Lighthouse

WunderPhotos

Upload Photos

1,703,235 foto’s ge-upload!

Nearby

Luchtkwaliteit

Not available.

Dikte sneeuw

Station Depth Geometrische hoogte
Pargon Creek 2 in 300 ft
Rocky Point 4 in 500 ft
Gobblers Knob 8 in 2030 ft
Coldfoot 22 in 1040 ft
Atigun Pass 37 in 4800 ft

Watertemperatuur langs de kust

Plaats Temperatuur
Geen meldingen van stations

Aardbevingen

Stad Distance Mag. Time & Date
No recent earthquake activity has been reported nearby.
Minimum magnitude displayed is 2.5.

Nabije weerstations

Geen persoonlijke weerstations in dit gebied.

What do you think?

We're not finished. Please let us know what you like, what you don't like, and what you are still missing.